Time;durP1;ratioP1;P1;durP2;ratioP2;P2;SDS_P1;SDS_P2;PMS_P1;PMS_P2;Temp;Humidity;BMP_temperature;BMP_pressure;BME280_temperature;BME280_humidity;BME280_pressure;Samples;Min_cycle;Max_cycle;Signal;HPM_P1;HPM_P2
2024/03/19 00:00:19;;;;;;;18.60;11.20;;;;;;;2.66;76.65;102072.36;104843;1258;62173;-67
2024/03/19 00:03:06;;;;;;;19.40;11.70;;;;;;;2.67;76.66;102071.10;104867;1257;138717;-68
2024/03/19 00:05:33;;;;;;;18.10;10.40;;;;;;;2.71;76.65;102070.02;104854;1260;75913;-67
2024/03/19 00:07:59;;;;;;;20.40;10.80;;;;;;;2.71;76.61;102073.45;104963;1260;62157;-69
2024/03/19 00:10:26;;;;;;;19.60;13.00;;;;;;;2.67;76.58;102067.94;104851;1261;138539;-68
2024/03/19 00:12:53;;;;;;;16.40;9.90;;;;;;;2.66;76.76;102071.52;104634;1263;62238;-68
2024/03/19 00:15:20;;;;;;;17.00;10.70;;;;;;;2.65;76.65;102075.77;104879;1257;138557;-68
2024/03/19 00:17:46;;;;;;;14.40;10.30;;;;;;;2.63;76.67;102076.31;104999;1264;77382;-68
2024/03/19 00:20:13;;;;;;;17.80;9.70;;;;;;;2.64;76.65;102079.81;104916;1257;64455;-68
2024/03/19 00:22:40;;;;;;;13.80;9.40;;;;;;;2.63;76.72;102080.45;104844;1259;137719;-68
2024/03/19 00:25:07;;;;;;;14.60;10.60;;;;;;;2.62;76.59;102084.85;104981;1260;62204;-67
2024/03/19 00:27:34;;;;;;;12.80;8.40;;;;;;;2.61;76.77;102083.02;104745;1257;137897;-66
2024/03/19 00:30:03;;;;;;;19.00;11.10;;;;;;;2.59;76.81;102085.14;104986;1258;76029;-66
2024/03/19 00:32:30;;;;;;;14.70;9.40;;;;;;;2.60;76.81;102087.16;108806;1257;66147;-67
2024/03/19 00:34:57;;;;;;;17.10;9.20;;;;;;;2.59;76.73;102085.83;105580;1260;139358;-66
2024/03/19 00:37:24;;;;;;;15.80;9.80;;;;;;;2.56;76.62;102084.55;104763;1261;62169;-66
2024/03/19 00:39:50;;;;;;;13.00;8.50;;;;;;;2.53;76.67;102085.05;104701;1257;139058;-67
2024/03/19 00:42:17;;;;;;;13.80;10.10;;;;;;;2.47;76.56;102085.13;104873;1258;75844;-67
2024/03/19 00:44:43;;;;;;;15.50;9.60;;;;;;;2.44;76.82;102087.13;104908;1260;67277;-67
2024/03/19 00:47:10;;;;;;;16.00;9.90;;;;;;;2.47;76.94;102090.29;104622;1262;73953;-67
2024/03/19 00:49:37;;;;;;;13.60;9.00;;;;;;;2.51;76.98;102085.73;104845;1256;62182;-67
2024/03/19 00:52:04;;;;;;;12.90;9.50;;;;;;;2.54;77.05;102088.55;104770;1257;138485;-67
2024/03/19 00:54:30;;;;;;;13.30;9.30;;;;;;;2.59;77.17;102090.51;104784;1258;76721;-67
2024/03/19 00:56:57;;;;;;;13.90;9.00;;;;;;;2.62;77.05;102093.16;104724;1261;138556;-67
2024/03/19 00:59:23;;;;;;;13.80;9.40;;;;;;;2.63;76.92;102092.20;104858;1260;62928;-68
2024/03/19 01:01:50;;;;;;;14.30;9.90;;;;;;;2.61;76.93;102091.73;104794;1260;62095;-66
2024/03/19 01:04:17;;;;;;;18.80;11.80;;;;;;;2.62;77.04;102091.64;104681;1259;137893;-67
2024/03/19 01:06:43;;;;;;;15.30;9.50;;;;;;;2.62;76.93;102090.60;104927;1257;74947;-65
2024/03/19 01:09:12;;;;;;;17.90;9.90;;;;;;;2.63;76.99;102091.01;104951;1260;137793;-67
2024/03/19 01:11:39;;;;;;;16.70;10.40;;;;;;;2.63;77.01;102095.57;104866;1260;73310;-65
2024/03/19 01:14:06;;;;;;;15.40;10.20;;;;;;;2.64;77.16;102098.70;105036;1261;62177;-67
2024/03/19 01:16:33;;;;;;;13.80;9.80;;;;;;;2.65;77.16;102098.30;104569;1263;138551;-66
2024/03/19 01:18:59;;;;;;;14.80;10.00;;;;;;;2.66;77.04;102097.55;104956;1257;74244;-68
2024/03/19 01:21:26;;;;;;;19.20;10.40;;;;;;;2.69;77.04;102098.73;104743;1260;138696;-68
2024/03/19 01:23:53;;;;;;;17.20;9.90;;;;;;;2.68;77.00;102096.81;105014;1260;71772;-68
2024/03/19 01:26:19;;;;;;;13.90;8.90;;;;;;;2.68;76.95;102095.23;104937;1260;62089;-68
2024/03/19 01:28:46;;;;;;;15.20;9.40;;;;;;;2.69;76.97;102099.48;104757;1259;139510;-68
2024/03/19 01:31:12;;;;;;;11.60;8.50;;;;;;;2.70;76.85;102097.82;104790;1258;75539;-67
2024/03/19 01:33:40;;;;;;;14.80;9.50;;;;;;;2.71;76.89;102099.65;104714;1259;138579;-67
2024/03/19 01:36:06;;;;;;;11.40;8.30;;;;;;;2.72;77.07;102099.56;104970;1257;71953;-68
2024/03/19 01:38:33;;;;;;;13.00;8.40;;;;;;;2.74;76.89;102097.44;104979;1257;62292;-67
2024/03/19 01:40:59;;;;;;;14.70;9.00;;;;;;;2.73;76.82;102094.97;104923;1257;137734;-67
2024/03/19 01:43:26;;;;;;;16.80;8.50;;;;;;;2.73;76.88;102096.33;104853;1258;75878;-67
2024/03/19 01:46:21;;;;;;;10.80;7.70;;;;;;;2.71;76.93;102093.77;104723;1263;138321;-68
2024/03/19 01:48:48;;;;;;;13.50;8.70;;;;;;;2.68;76.83;102091.23;104938;1258;72861;-67
2024/03/19 01:51:15;;;;;;;12.90;8.60;;;;;;;2.67;76.80;102094.48;104674;1257;138540;-66
2024/03/19 01:53:41;;;;;;;13.40;8.50;;;;;;;2.67;76.95;102093.41;104929;1260;62092;-67
2024/03/19 01:56:08;;;;;;;17.70;8.10;;;;;;;2.70;76.88;102089.66;104950;1260;62063;-68
2024/03/19 01:58:35;;;;;;;14.70;8.30;;;;;;;2.73;77.02;102088.53;104706;1258;138540;-68
2024/03/19 02:01:03;;;;;;;12.40;7.80;;;;;;;2.76;77.00;102086.43;104681;1264;70528;-68
2024/03/19 02:03:30;;;;;;;13.30;7.60;;;;;;;2.77;76.96;102080.14;104615;1257;138560;-68
2024/03/19 02:05:57;;;;;;;14.00;7.60;;;;;;;2.80;76.93;102074.86;104842;1258;62157;-68
2024/03/19 02:08:23;;;;;;;17.90;8.80;;;;;;;2.81;76.91;102078.75;104673;1258;76667;-68
2024/03/19 02:10:50;;;;;;;13.40;8.40;;;;;;;2.80;76.86;102076.61;104707;1259;137917;-68
2024/03/19 02:13:16;;;;;;;14.00;8.40;;;;;;;2.80;76.83;102070.14;104846;1261;62115;-68
2024/03/19 02:15:43;;;;;;;14.40;9.50;;;;;;;2.81;76.69;102076.45;104641;1257;137929;-68
2024/03/19 02:18:11;;;;;;;15.50;8.70;;;;;;;2.76;76.69;102080.46;104702;1261;62048;-68
2024/03/19 02:20:37;;;;;;;13.80;8.80;;;;;;;2.75;76.58;102084.86;104782;1257;75438;-68
2024/03/19 02:23:04;;;;;;;12.30;8.80;;;;;;;2.71;76.41;102087.67;104701;1258;138170;-68
2024/03/19 02:25:30;;;;;;;13.80;8.60;;;;;;;2.69;76.52;102088.73;105019;1257;73805;-63
2024/03/19 02:27:57;;;;;;;14.80;7.90;;;;;;;2.70;76.63;102091.17;104746;1256;138751;-63
2024/03/19 02:30:23;;;;;;;14.50;8.50;;;;;;;2.70;76.67;102090.04;104773;1258;62045;-64
2024/03/19 02:32:50;;;;;;;11.90;8.20;;;;;;;2.70;76.65;102088.48;104624;1260;138622;-64
2024/03/19 02:35:17;;;;;;;14.30;8.70;;;;;;;2.70;76.53;102084.32;104830;1261;66175;-64
2024/03/19 02:37:43;;;;;;;14.10;8.40;;;;;;;2.68;76.56;102085.19;104922;1257;73342;-64
2024/03/19 02:40:10;;;;;;;14.20;8.30;;;;;;;2.66;76.53;102086.89;104675;1257;139406;-63
2024/03/19 02:42:37;;;;;;;12.40;8.00;;;;;;;2.63;76.58;102089.83;104843;1257;61976;-63
2024/03/19 02:45:04;;;;;;;14.50;8.70;;;;;;;2.60;76.52;102092.35;104788;1258;139713;-64
2024/03/19 02:47:31;;;;;;;11.10;8.40;;;;;;;2.58;76.64;102091.28;105112;1260;66694;-63
2024/03/19 02:49:57;;;;;;;15.20;9.40;;;;;;;2.53;76.42;102091.13;104636;1259;73671;-64
2024/03/19 02:52:24;;;;;;;15.10;8.50;;;;;;;2.48;76.58;102094.05;104621;1262;138687;-64
2024/03/19 02:54:51;;;;;;;13.60;9.10;;;;;;;2.43;76.67;102096.41;104779;1260;62128;-65
2024/03/19 02:57:18;;;;;;;14.60;8.70;;;;;;;2.39;76.52;102096.91;104789;1258;138707;-64
2024/03/19 02:59:44;;;;;;;14.00;8.50;;;;;;;2.34;76.62;102099.48;104576;1257;66764;-63
2024/03/19 03:02:11;;;;;;;13.00;9.20;;;;;;;2.30;76.68;102104.02;104889;1256;62036;-64
2024/03/19 03:04:37;;;;;;;14.70;9.00;;;;;;;2.28;76.82;102109.02;104506;1257;138336;-63
2024/03/19 03:07:04;;;;;;;14.00;8.50;;;;;;;2.24;76.64;102108.38;104774;1259;62039;-63
2024/03/19 03:09:31;;;;;;;12.80;9.00;;;;;;;2.18;76.82;102104.59;104815;1259;138576;-63
2024/03/19 03:11:57;;;;;;;14.10;9.80;;;;;;;2.11;76.70;102108.23;104909;1257;67752;-63
2024/03/19 03:14:24;;;;;;;15.10;8.90;;;;;;;2.03;76.80;102105.62;104708;1260;72822;-64
2024/03/19 03:16:50;;;;;;;12.90;8.60;;;;;;;1.95;76.90;102107.92;104768;1257;137941;-63
2024/03/19 03:19:17;;;;;;;13.90;9.60;;;;;;;1.86;76.93;102109.25;104963;1259;62182;-63
2024/03/19 03:21:43;;;;;;;16.20;9.70;;;;;;;1.75;77.02;102110.67;104734;1257;137617;-63
2024/03/19 03:24:10;;;;;;;15.10;9.80;;;;;;;1.65;77.03;102116.07;104785;1256;65511;-63
2024/03/19 03:26:37;;;;;;;15.40;8.70;;;;;;;1.56;76.92;102117.08;104868;1257;73868;-64
2024/03/19 03:29:04;;;;;;;15.90;9.70;;;;;;;1.48;77.16;102118.65;104652;1257;138536;-64
2024/03/19 03:31:30;;;;;;;15.20;9.60;;;;;;;1.39;77.32;102121.19;108891;1256;60257;-65
2024/03/19 03:33:57;;;;;;;13.90;9.30;;;;;;;1.29;77.47;102118.61;108813;1256;139592;-65
2024/03/19 03:36:24;;;;;;;12.00;8.40;;;;;;;1.26;77.39;102120.45;107601;1256;62233;-65
2024/03/19 03:38:50;;;;;;;15.90;9.30;;;;;;;1.23;77.57;102121.54;104895;1256;139118;-64
2024/03/19 03:41:17;;;;;;;13.60;9.80;;;;;;;1.18;77.84;102121.15;104849;1257;62086;-63
2024/03/19 03:43:44;;;;;;;20.20;9.80;;;;;;;1.14;77.85;102124.80;104836;1256;62167;-63
2024/03/19 03:46:10;;;;;;;14.70;10.10;;;;;;;1.10;77.82;102123.73;104750;1257;138859;-63
2024/03/19 03:48:37;;;;;;;15.00;10.00;;;;;;;1.04;77.95;102125.34;104760;1257;67123;-64
2024/03/19 03:51:04;;;;;;;15.90;10.40;;;;;;;1.00;78.01;102128.92;104612;1256;138652;-63
2024/03/19 03:53:31;;;;;;;15.90;10.10;;;;;;;0.94;77.99;102131.74;104879;1258;62146;-62
2024/03/19 03:55:57;;;;;;;15.30;10.00;;;;;;;0.89;78.11;102135.95;104675;1260;62031;-65
2024/03/19 03:58:24;;;;;;;17.20;10.20;;;;;;;0.85;78.11;102137.14;104715;1260;138578;-63
2024/03/19 04:00:50;;;;;;;14.50;9.90;;;;;;;0.80;78.24;102139.33;104829;1255;61906;-63
2024/03/19 04:03:17;;;;;;;14.30;9.70;;;;;;;0.76;78.34;102136.55;104710;1256;138734;-64
2024/03/19 04:05:47;;;;;;;15.90;9.30;;;;;;;0.71;78.46;102137.71;104808;1262;62170;-64
2024/03/19 04:08:14;;;;;;;16.10;10.30;;;;;;;0.67;78.47;102139.91;104816;1260;62066;-63
2024/03/19 04:10:40;;;;;;;15.90;9.90;;;;;;;0.62;78.51;102142.92;104559;1258;138250;-63
2024/03/19 04:13:07;;;;;;;14.90;10.30;;;;;;;0.58;78.83;102142.95;104863;1257;66429;-64
2024/03/19 04:15:34;;;;;;;14.40;9.90;;;;;;;0.54;78.84;102145.38;104680;1260;137864;-64
2024/03/19 04:18:00;;;;;;;17.50;10.50;;;;;;;0.51;79.03;102146.46;104727;1258;62116;-63
2024/03/19 04:20:27;;;;;;;16.30;10.00;;;;;;;0.48;79.05;102148.08;104944;1259;62153;-62
2024/03/19 04:22:54;;;;;;;17.10;10.00;;;;;;;0.46;79.34;102149.30;104718;1260;138688;-63
2024/03/19 04:25:20;;;;;;;15.00;9.40;;;;;;;0.45;79.36;102153.35;104796;1257;64411;-63
2024/03/19 04:27:47;;;;;;;13.50;9.20;;;;;;;0.45;79.39;102152.16;104670;1259;138863;-64
2024/03/19 04:30:14;;;;;;;14.20;9.50;;;;;;;0.46;79.56;102155.02;104782;1260;62183;-64
2024/03/19 04:32:42;;;;;;;14.40;9.50;;;;;;;0.47;79.75;102156.50;104825;1257;61933;-64
2024/03/19 04:35:08;;;;;;;12.70;9.00;;;;;;;0.49;79.90;102153.73;108681;1256;138227;-64
2024/03/19 04:37:35;;;;;;;12.50;9.30;;;;;;;0.52;79.94;102158.54;109044;1256;65685;-65
2024/03/19 04:40:01;;;;;;;12.30;8.70;;;;;;;0.56;79.73;102162.55;108825;1256;138392;-65
2024/03/19 04:42:29;;;;;;;16.30;9.10;;;;;;;0.61;79.86;102159.42;108955;1256;59977;-65
2024/03/19 04:44:55;;;;;;;16.80;9.10;;;;;;;0.64;79.85;102160.27;106912;1257;138639;-64
2024/03/19 04:47:22;;;;;;;13.00;8.90;;;;;;;0.69;79.82;102160.66;104764;1256;75609;-64
2024/03/19 04:49:49;;;;;;;13.70;9.30;;;;;;;0.73;79.92;102162.39;104821;1259;62193;-64
2024/03/19 04:52:15;;;;;;;14.30;9.30;;;;;;;0.76;79.67;102162.65;104719;1260;138495;-64
2024/03/19 04:54:42;;;;;;;13.90;8.90;;;;;;;0.78;79.61;102165.31;104861;1257;62186;-64
2024/03/19 04:57:08;;;;;;;18.00;9.70;;;;;;;0.80;79.49;102171.13;104681;1257;138989;-63
2024/03/19 04:59:35;;;;;;;19.70;11.80;;;;;;;0.80;79.45;102172.87;104805;1257;76419;-64
2024/03/19 05:02:02;;;;;;;22.50;13.00;;;;;;;0.80;79.39;102176.80;104714;1259;67237;-63
2024/03/19 05:04:28;;;;;;;18.40;10.70;;;;;;;0.78;79.32;102174.10;104612;1257;138590;-63
2024/03/19 05:06:55;;;;;;;16.80;10.70;;;;;;;0.78;79.46;102179.48;104784;1257;62109;-64
2024/03/19 05:09:21;;;;;;;16.60;11.10;;;;;;;0.80;79.65;102181.48;104714;1261;138235;-65
2024/03/19 05:11:48;;;;;;;17.80;11.00;;;;;;;0.82;79.69;102183.54;104687;1259;75628;-65
2024/03/19 05:14:16;;;;;;;18.30;10.30;;;;;;;0.81;79.56;102183.33;104888;1256;65599;-64
2024/03/19 05:16:42;;;;;;;21.10;11.50;;;;;;;0.83;79.68;102186.76;104938;1257;137941;-64
2024/03/19 05:19:09;;;;;;;20.40;12.20;;;;;;;0.87;79.88;102193.48;104664;1256;62644;-64
2024/03/19 05:21:36;;;;;;;15.70;11.60;;;;;;;0.89;79.74;102191.92;104653;1260;138129;-64
2024/03/19 05:24:02;;;;;;;17.80;11.70;;;;;;;0.93;79.87;102195.59;104740;1257;75521;-64
2024/03/19 05:26:29;;;;;;;20.40;14.10;;;;;;;0.98;79.90;102197.60;104734;1258;66582;-65
2024/03/19 05:28:56;;;;;;;20.60;13.40;;;;;;;1.08;80.16;102196.67;104729;1256;139413;-64
2024/03/19 05:31:26;;;;;;;20.50;13.40;;;;;;;1.19;80.27;102199.70;104746;1260;62118;-64
2024/03/19 05:33:54;;;;;;;25.70;13.70;;;;;;;1.30;80.11;102196.35;104745;1260;138821;-64
2024/03/19 05:36:22;;;;;;;18.90;12.80;;;;;;;1.43;80.29;102197.73;104859;1256;76474;-64
2024/03/19 05:38:48;;;;;;;20.50;12.00;;;;;;;1.57;80.33;102197.21;104907;1260;138758;-65
2024/03/19 05:41:15;;;;;;;17.10;12.30;;;;;;;1.69;80.29;102197.60;108696;1256;72288;-65
2024/03/19 05:43:42;;;;;;;15.40;11.60;;;;;;;1.83;80.17;102200.83;104922;1257;62112;-65
2024/03/19 05:46:09;;;;;;;16.20;11.10;;;;;;;1.99;80.34;102197.43;104773;1258;138596;-64
2024/03/19 05:48:37;;;;;;;17.50;12.00;;;;;;;2.15;80.22;102203.10;104958;1256;74582;-65
2024/03/19 05:51:05;;;;;;;18.60;11.50;;;;;;;2.33;80.17;102203.84;108430;1255;138608;-65
2024/03/19 05:53:32;;;;;;;16.10;10.30;;;;;;;2.53;80.23;102203.94;108939;1255;73048;-65
2024/03/19 05:56:01;;;;;;;16.30;10.30;;;;;;;2.76;80.17;102202.98;107078;1256;61252;-64
2024/03/19 05:58:28;;;;;;;13.70;9.50;;;;;;;3.02;80.12;102198.13;104869;1260;138252;-65
2024/03/19 06:00:55;;;;;;;15.30;9.70;;;;;;;3.31;80.20;102197.92;104961;1259;76552;-62
2024/03/19 06:03:22;;;;;;;12.30;8.00;;;;;;;3.59;79.82;102190.16;104709;1257;138237;-63
2024/03/19 06:05:53;;;;;;;12.10;8.50;;;;;;;3.79;79.35;102190.83;104922;1257;73335;-62
2024/03/19 06:08:20;;;;;;;14.90;9.00;;;;;;;3.97;78.98;102188.55;104736;1256;62214;-62
2024/03/19 06:10:46;;;;;;;13.80;9.20;;;;;;;4.10;78.51;102190.84;104489;1256;138341;-61
2024/03/19 06:13:13;;;;;;;12.50;8.70;;;;;;;4.13;77.94;102191.41;104596;1262;75161;-63
2024/03/19 06:15:40;;;;;;;13.30;8.60;;;;;;;4.13;77.65;102195.94;104616;1255;137904;-63
2024/03/19 06:18:07;;;;;;;10.60;7.70;;;;;;;4.08;77.19;102195.43;104690;1257;72865;-63
2024/03/19 06:20:33;;;;;;;10.10;7.50;;;;;;;4.05;76.86;102197.66;104624;1256;62169;-62
2024/03/19 06:23:00;;;;;;;12.70;7.50;;;;;;;4.06;76.89;102196.70;106506;1256;138998;-62
2024/03/19 06:25:26;;;;;;;12.40;7.50;;;;;;;4.12;76.77;102197.09;108960;1255;74872;-63
2024/03/19 06:27:54;;;;;;;13.20;8.00;;;;;;;4.17;76.74;102196.05;108790;1257;138511;-63
2024/03/19 06:30:20;;;;;;;23.00;15.30;;;;;;;4.29;76.74;102198.48;108966;1256;72374;-63
2024/03/19 06:32:47;;;;;;;29.20;18.80;;;;;;;4.44;76.58;102199.82;108381;1256;138084;-63
2024/03/19 06:35:14;;;;;;;15.60;11.10;;;;;;;4.58;76.45;102198.52;108985;1256;61077;-63
2024/03/19 06:37:41;;;;;;;10.70;8.60;;;;;;;4.69;76.28;102200.02;108961;1256;74278;-62
2024/03/19 06:40:10;;;;;;;12.50;8.50;;;;;;;4.83;76.13;102197.56;108895;1256;138444;-62
2024/03/19 06:42:37;;;;;;;12.10;7.90;;;;;;;4.94;75.72;102197.13;108988;1256;71264;-62
2024/03/19 06:45:04;;;;;;;11.90;8.80;;;;;;;5.03;75.45;102199.63;108768;1255;138832;-62
2024/03/19 06:47:31;;;;;;;11.10;7.80;;;;;;;5.10;75.30;102202.04;109060;1255;59888;-62
2024/03/19 06:49:59;;;;;;;18.40;8.40;;;;;;;5.23;75.37;102203.16;108974;1256;74327;-62
2024/03/19 06:52:26;;;;;;;11.50;7.60;;;;;;;5.41;75.14;102202.15;108780;1256;137789;-62
2024/03/19 06:54:52;;;;;;;11.90;7.80;;;;;;;5.57;75.01;102205.88;108930;1256;71983;-62
2024/03/19 06:57:19;;;;;;;10.40;8.00;;;;;;;5.73;74.76;102210.04;108849;1256;138693;-61
2024/03/19 06:59:45;;;;;;;10.20;7.40;;;;;;;5.83;74.38;102210.77;108961;1256;60300;-61
2024/03/19 07:02:14;;;;;;;11.00;8.30;;;;;;;5.89;73.87;102212.52;108926;1256;75104;-61
2024/03/19 07:04:40;;;;;;;9.10;7.20;;;;;;;5.83;73.27;102215.45;108798;1256;138520;-61
2024/03/19 07:07:07;;;;;;;11.00;7.50;;;;;;;5.77;72.94;102216.23;108942;1256;72830;-63
2024/03/19 07:09:33;;;;;;;11.30;6.70;;;;;;;5.67;72.53;102222.72;108818;1256;138377;-62
2024/03/19 07:12:00;;;;;;;9.00;6.70;;;;;;;5.52;72.24;102218.56;108741;1256;60126;-61
2024/03/19 07:14:27;;;;;;;10.00;7.60;;;;;;;5.41;72.22;102222.83;108529;1256;75495;-61
2024/03/19 07:16:53;;;;;;;9.60;7.10;;;;;;;5.32;72.19;102223.60;108707;1257;137674;-61
2024/03/19 07:19:20;;;;;;;9.40;7.20;;;;;;;5.20;71.99;102225.95;108814;1257;71813;-61
2024/03/19 07:21:47;;;;;;;10.20;7.80;;;;;;;5.11;72.02;102227.20;108711;1256;137681;-61
2024/03/19 07:24:14;;;;;;;9.00;7.10;;;;;;;5.08;72.03;102228.73;108798;1257;63109;-61
2024/03/19 07:26:40;;;;;;;10.80;7.60;;;;;;;5.12;72.34;102228.70;108818;1256;75409;-60
2024/03/19 07:29:08;;;;;;;12.10;8.10;;;;;;;5.18;72.36;102224.20;108959;1256;139054;-60
2024/03/19 07:31:39;;;;;;;11.10;7.20;;;;;;;5.17;72.14;102228.68;109039;1256;70998;-61
2024/03/19 07:34:06;;;;;;;8.90;7.00;;;;;;;5.17;72.12;102232.85;108866;1256;138161;-61
2024/03/19 07:36:33;;;;;;;14.10;8.70;;;;;;;5.20;72.17;102232.71;108974;1256;60021;-61
2024/03/19 07:39:00;;;;;;;12.10;7.90;;;;;;;5.23;71.96;102237.94;108866;1256;138205;-61
2024/03/19 07:41:26;;;;;;;17.10;8.90;;;;;;;5.25;71.95;102237.96;109008;1256;65097;-61
2024/03/19 07:43:53;;;;;;;13.10;9.60;;;;;;;5.29;72.00;102237.65;108920;1256;70971;-61
2024/03/19 07:46:20;;;;;;;13.00;8.80;;;;;;;5.32;71.87;102238.36;107092;1259;137765;-62
2024/03/19 07:48:47;;;;;;;12.90;8.40;;;;;;;5.34;71.85;102238.54;105081;1256;62141;-62
2024/03/19 07:51:14;;;;;;;11.70;7.80;;;;;;;5.36;71.79;102241.51;104628;1256;138319;-62
2024/03/19 07:53:40;;;;;;;12.60;8.10;;;;;;;5.33;71.79;102244.75;104837;1259;65648;-61
2024/03/19 07:56:07;;;;;;;13.60;7.00;;;;;;;5.33;71.88;102241.82;104727;1260;73729;-61
2024/03/19 07:58:33;;;;;;;14.00;8.20;;;;;;;5.36;71.94;102241.14;105855;1256;137649;-62
2024/03/19 08:01:00;;;;;;;14.30;7.60;;;;;;;5.38;71.82;102241.27;108966;1256;59837;-62
2024/03/19 08:03:27;;;;;;;39.40;16.00;;;;;;;5.40;71.90;102238.78;104727;1259;137922;-61
2024/03/19 08:05:58;;;;;;;14.80;8.50;;;;;;;5.50;72.24;102244.89;104732;1260;66367;-62
2024/03/19 08:08:25;;;;;;;81.50;39.30;;;;;;;5.60;71.97;102241.05;108566;1256;72764;-62
2024/03/19 08:10:51;;;;;;;27.20;15.00;;;;;;;5.67;72.01;102238.27;104491;1260;138444;-62
2024/03/19 08:13:18;;;;;;;35.50;21.80;;;;;;;5.81;71.86;102242.63;104857;1256;61992;-62
2024/03/19 08:15:45;;;;;;;14.40;10.70;;;;;;;5.90;71.80;102242.06;104558;1257;138701;-62
2024/03/19 08:18:11;;;;;;;14.50;7.30;;;;;;;6.06;71.88;102247.88;104630;1259;62089;-62
2024/03/19 08:20:38;;;;;;;11.30;6.50;;;;;;;6.17;71.64;102245.32;104814;1255;71255;-62
2024/03/19 08:23:05;;;;;;;12.70;8.20;;;;;;;6.21;71.38;102250.92;104794;1260;137602;-63
2024/03/19 08:25:33;;;;;;;11.20;8.90;;;;;;;6.31;71.28;102250.90;108803;1259;60831;-63
2024/03/19 08:27:59;;;;;;;14.60;10.00;;;;;;;6.46;71.22;102249.44;108638;1256;137658;-63
2024/03/19 08:30:26;;;;;;;13.10;9.40;;;;;;;6.57;71.15;102251.23;108949;1255;66152;-63
2024/03/19 08:32:53;;;;;;;16.70;10.60;;;;;;;6.78;71.01;102247.49;108700;1256;137892;-66
2024/03/19 08:35:20;;;;;;;14.70;7.90;;;;;;;6.93;70.79;102248.48;108711;1256;279997;-66
2024/03/19 08:37:47;;;;;;;21.40;12.30;;;;;;;6.97;70.32;102250.83;108983;1256;60061;-66
2024/03/19 08:40:13;;;;;;;53.70;35.20;;;;;;;7.02;70.33;102256.71;108715;1256;138290;-66
2024/03/19 08:42:40;;;;;;;24.60;15.70;;;;;;;7.03;69.97;102259.79;108796;1256;65511;-65
2024/03/19 08:45:10;;;;;;;32.80;21.10;;;;;;;6.94;69.63;102262.88;108661;1256;137980;-65
2024/03/19 08:47:40;;;;;;;10.80;5.70;;;;;;;6.84;69.31;102264.71;108760;1256;61050;-66
2024/03/19 08:50:07;;;;;;;57.80;39.40;;;;;;;6.73;69.29;102268.99;108939;1256;60184;-65
2024/03/19 08:52:35;;;;;;;9.40;6.40;;;;;;;6.76;69.65;102264.32;107743;1256;138148;-64
2024/03/19 08:55:02;;;;;;;23.40;14.00;;;;;;;6.87;69.84;102265.85;107504;1256;66761;-64
2024/03/19 08:57:29;;;;;;;123.90;83.30;;;;;;;6.92;69.39;102266.21;104547;1258;138033;-63
2024/03/19 08:59:58;;;;;;;59.90;42.10;;;;;;;6.85;69.24;102266.42;104857;1260;62377;-65
2024/03/19 09:02:24;;;;;;;91.30;64.20;;;;;;;6.84;69.15;102265.19;104724;1262;62020;-65
2024/03/19 09:04:51;;;;;;;12.20;10.40;;;;;;;6.80;69.10;102265.80;104633;1256;137918;-65
2024/03/19 09:07:18;;;;;;;10.00;6.70;;;;;;;6.85;69.21;102265.20;104728;1258;67182;-63
2024/03/19 09:09:45;;;;;;;6.10;5.20;;;;;;;6.89;69.30;102265.52;104583;1256;137692;-64
2024/03/19 09:12:12;;;;;;;12.80;9.60;;;;;;;6.98;69.24;102263.48;104998;1260;62060;-65
2024/03/19 09:14:38;;;;;;;11.40;9.10;;;;;;;6.94;68.86;102265.82;104877;1256;62058;-64
2024/03/19 09:17:05;;;;;;;6.30;4.60;;;;;;;6.93;69.03;102263.68;108633;1257;137843;-65
2024/03/19 09:19:39;;;;;;;8.40;5.80;;;;;;;7.06;69.15;102261.89;108840;1257;66236;-65
2024/03/19 09:22:06;;;;;;;5.80;4.80;;;;;;;7.12;68.81;102263.45;108808;1256;137681;-65
2024/03/19 09:24:32;;;;;;;4.80;3.90;;;;;;;7.19;68.86;102262.34;108860;1256;60275;-63
2024/03/19 09:27:01;;;;;;;7.10;4.20;;;;;;;7.27;68.52;102259.48;108773;1256;137869;-65
2024/03/19 09:29:27;;;;;;;5.40;3.90;;;;;;;7.25;67.96;102262.38;108956;1256;76000;-63
2024/03/19 09:31:54;;;;;;;5.70;3.40;;;;;;;7.21;67.74;102262.25;108989;1256;65049;-63
2024/03/19 09:34:20;;;;;;;6.50;3.70;;;;;;;7.11;67.63;102262.36;108882;1256;137466;-64
2024/03/19 09:36:47;;;;;;;4.20;3.50;;;;;;;7.21;67.94;102264.56;108987;1256;59847;-64
2024/03/19 09:39:15;;;;;;;4.00;3.60;;;;;;;7.31;67.59;102267.83;108850;1257;137600;-64
2024/03/19 09:41:42;;;;;;;3.30;3.00;;;;;;;7.42;67.27;102266.55;105886;1258;75668;-64
2024/03/19 09:44:18;;;;;;;3.00;2.30;;;;;;;7.46;67.00;102273.41;104810;1258;66991;-65
2024/03/19 09:46:44;;;;;;;5.30;2.80;;;;;;;7.51;66.73;102274.31;104620;1259;138309;-64
2024/03/19 09:49:16;;;;;;;5.60;3.50;;;;;;;7.43;66.02;102273.08;104880;1262;62097;-64
2024/03/19 09:51:42;;;;;;;2.70;1.80;;;;;;;7.39;66.33;102273.22;104703;1262;138569;-66
2024/03/19 09:54:14;;;;;;;3.70;2.30;;;;;;;7.47;66.33;102270.88;104619;1257;76406;-66
2024/03/19 09:56:41;;;;;;;4.10;2.80;;;;;;;7.61;66.37;102270.52;106079;1259;64674;-65
2024/03/19 09:59:15;;;;;;;5.50;3.70;;;;;;;7.70;66.26;102271.23;108863;1256;137585;-64
2024/03/19 10:01:43;;;;;;;5.50;3.00;;;;;;;7.65;65.75;102270.61;108858;1256;59714;-64
2024/03/19 10:04:14;;;;;;;7.80;3.00;;;;;;;7.69;65.81;102272.76;108939;1256;137590;-64
2024/03/19 10:06:41;;;;;;;4.60;3.00;;;;;;;7.78;65.76;102272.63;108911;1256;75786;-64
2024/03/19 10:09:08;;;;;;;3.00;2.40;;;;;;;7.81;65.44;102272.95;106149;1260;138594;-64
2024/03/19 10:11:35;;;;;;;5.10;2.80;;;;;;;7.76;65.18;102273.71;108765;1257;73532;-65
2024/03/19 10:14:03;;;;;;;4.60;3.40;;;;;;;7.74;65.22;102270.80;108791;1259;59969;-65
2024/03/19 10:16:30;;;;;;;5.90;3.70;;;;;;;7.78;65.05;102271.89;108863;1257;137694;-65
2024/03/19 10:18:57;;;;;;;5.80;3.30;;;;;;;7.72;65.00;102271.17;108926;1257;74724;-66
2024/03/19 10:21:24;;;;;;;5.00;3.40;;;;;;;7.70;64.88;102271.05;107449;1258;138474;-65
2024/03/19 10:23:50;;;;;;;3.50;3.10;;;;;;;7.69;64.94;102267.52;104872;1256;73223;-64
2024/03/19 10:26:18;;;;;;;3.80;3.00;;;;;;;7.71;64.94;102268.36;104837;1258;62174;-64
2024/03/19 10:28:48;;;;;;;6.10;3.50;;;;;;;7.66;64.88;102269.82;104793;1259;137905;-64
2024/03/19 10:31:15;;;;;;;7.30;3.50;;;;;;;7.63;64.82;102271.85;104838;1257;75808;-63
2024/03/19 10:33:43;;;;;;;3.80;2.90;;;;;;;7.51;64.73;102274.61;104779;1260;137505;-64
2024/03/19 10:36:25;;;;;;;3.30;2.90;;;;;;;7.48;64.78;102274.80;104746;1259;71491;-63
2024/03/19 10:38:52;;;;;;;5.60;2.90;;;;;;;7.41;64.65;102274.91;108792;1256;138010;-65
2024/03/19 10:41:18;;;;;;;3.30;2.80;;;;;;;7.32;64.65;102270.80;108796;1259;59843;-65
2024/03/19 10:43:46;;;;;;;4.30;2.80;;;;;;;7.33;64.81;102272.61;108841;1258;75907;-65
2024/03/19 10:46:13;;;;;;;7.20;2.90;;;;;;;7.38;64.84;102269.85;108839;1258;137561;-65
2024/03/19 10:48:39;;;;;;;5.10;3.10;;;;;;;7.55;65.12;102271.92;108798;1257;73556;-64
2024/03/19 10:51:07;;;;;;;5.10;3.20;;;;;;;7.76;64.86;102268.84;108783;1258;137930;-64
2024/03/19 10:53:34;;;;;;;4.90;3.40;;;;;;;7.83;64.45;102266.27;108796;1258;61699;-64
2024/03/19 10:56:01;;;;;;;3.80;2.60;;;;;;;7.93;64.30;102265.32;108915;1258;75053;-65
2024/03/19 10:58:28;;;;;;;3.60;2.70;;;;;;;8.11;64.19;102263.94;108793;1258;137760;-64
2024/03/19 11:00:56;;;;;;;4.10;2.80;;;;;;;8.25;64.04;102262.46;108896;1257;70459;-64
2024/03/19 11:03:23;;;;;;;5.50;3.10;;;;;;;8.31;63.57;102259.34;108778;1259;138112;-63
2024/03/19 11:05:54;;;;;;;3.90;3.00;;;;;;;8.37;63.58;102256.34;108909;1260;59880;-64
2024/03/19 11:08:20;;;;;;;5.40;3.10;;;;;;;8.50;63.54;102259.42;108902;1257;76246;-64
2024/03/19 11:10:47;;;;;;;4.70;2.50;;;;;;;8.57;63.20;102252.65;108815;1257;138165;-64
2024/03/19 11:13:17;;;;;;;5.50;3.60;;;;;;;8.70;63.12;102257.20;108956;1257;73093;-64